sensor_id;sensor_type;location;lat;lon;timestamp;pressure;altitude;pressure_sealevel;temperature
17142;BMP180;32805;53.556;9.944;2022-08-21T00:00:10;101414.00;;;16.70
17142;BMP180;32805;53.556;9.944;2022-08-21T00:02:45;101400.00;;;16.80
17142;BMP180;32805;53.556;9.944;2022-08-21T00:05:13;101413.00;;;16.80
17142;BMP180;32805;53.556;9.944;2022-08-21T00:07:41;101403.00;;;16.80
17142;BMP180;32805;53.556;9.944;2022-08-21T00:10:10;101412.00;;;16.80
17142;BMP180;32805;53.556;9.944;2022-08-21T00:12:40;101405.00;;;16.70
17142;BMP180;32805;53.556;9.944;2022-08-21T00:15:10;101403.00;;;16.60
17142;BMP180;32805;53.556;9.944;2022-08-21T00:17:40;101399.00;;;16.70
17142;BMP180;32805;53.556;9.944;2022-08-21T00:20:10;101401.00;;;16.70
17142;BMP180;32805;53.556;9.944;2022-08-21T00:22:39;101393.00;;;16.60
17142;BMP180;32805;53.556;9.944;2022-08-21T00:25:09;101398.00;;;16.50
17142;BMP180;32805;53.556;9.944;2022-08-21T00:27:38;101384.00;;;16.60
17142;BMP180;32805;53.556;9.944;2022-08-21T00:30:10;101387.00;;;16.60
17142;BMP180;32805;53.556;9.944;2022-08-21T00:32:49;101379.00;;;16.60
17142;BMP180;32805;53.556;9.944;2022-08-21T00:35:19;101390.00;;;16.60
17142;BMP180;32805;53.556;9.944;2022-08-21T00:37:48;101377.00;;;16.60
17142;BMP180;32805;53.556;9.944;2022-08-21T00:40:20;101377.00;;;16.60
17142;BMP180;32805;53.556;9.944;2022-08-21T00:42:49;101391.00;;;16.60
17142;BMP180;32805;53.556;9.944;2022-08-21T00:45:19;101375.00;;;16.60
17142;BMP180;32805;53.556;9.944;2022-08-21T00:47:47;101358.00;;;16.60
17142;BMP180;32805;53.556;9.944;2022-08-21T00:50:16;101373.00;;;16.60
17142;BMP180;32805;53.556;9.944;2022-08-21T00:52:49;101377.00;;;16.60
17142;BMP180;32805;53.556;9.944;2022-08-21T00:55:17;101359.00;;;16.50
17142;BMP180;32805;53.556;9.944;2022-08-21T00:57:51;101374.00;;;16.50
17142;BMP180;32805;53.556;9.944;2022-08-21T01:00:22;101382.00;;;16.60
17142;BMP180;32805;53.556;9.944;2022-08-21T01:02:51;101377.00;;;16.60
17142;BMP180;32805;53.556;9.944;2022-08-21T01:05:19;101378.00;;;16.60
17142;BMP180;32805;53.556;9.944;2022-08-21T01:07:46;101379.00;;;16.60
17142;BMP180;32805;53.556;9.944;2022-08-21T01:10:15;101381.00;;;16.60
17142;BMP180;32805;53.556;9.944;2022-08-21T01:12:52;101386.00;;;16.60
17142;BMP180;32805;53.556;9.944;2022-08-21T01:15:23;101379.00;;;16.60
17142;BMP180;32805;53.556;9.944;2022-08-21T01:17:52;101376.00;;;16.60
17142;BMP180;32805;53.556;9.944;2022-08-21T01:20:20;101382.00;;;16.60
17142;BMP180;32805;53.556;9.944;2022-08-21T01:22:59;101374.00;;;16.60
17142;BMP180;32805;53.556;9.944;2022-08-21T01:25:27;101371.00;;;16.60
17142;BMP180;32805;53.556;9.944;2022-08-21T01:27:55;101378.00;;;16.60
17142;BMP180;32805;53.556;9.944;2022-08-21T01:30:27;101376.00;;;16.60
17142;BMP180;32805;53.556;9.944;2022-08-21T01:32:56;101368.00;;;16.60
17142;BMP180;32805;53.556;9.944;2022-08-21T01:35:24;101384.00;;;16.50
17142;BMP180;32805;53.556;9.944;2022-08-21T01:37:52;101382.00;;;16.30
17142;BMP180;32805;53.556;9.944;2022-08-21T01:40:21;101383.00;;;16.40
17142;BMP180;32805;53.556;9.944;2022-08-21T01:42:49;101373.00;;;16.40
17142;BMP180;32805;53.556;9.944;2022-08-21T01:45:17;101389.00;;;16.40
17142;BMP180;32805;53.556;9.944;2022-08-21T01:47:45;101385.00;;;16.40
17142;BMP180;32805;53.556;9.944;2022-08-21T01:50:16;101379.00;;;16.40
17142;BMP180;32805;53.556;9.944;2022-08-21T01:52:45;101375.00;;;16.40
17142;BMP180;32805;53.556;9.944;2022-08-21T01:55:14;101367.00;;;16.40
17142;BMP180;32805;53.556;9.944;2022-08-21T01:57:44;101379.00;;;16.40
17142;BMP180;32805;53.556;9.944;2022-08-21T02:00:14;101369.00;;;16.50
17142;BMP180;32805;53.556;9.944;2022-08-21T02:02:42;101369.00;;;16.40
17142;BMP180;32805;53.556;9.944;2022-08-21T02:05:12;101373.00;;;16.50
17142;BMP180;32805;53.556;9.944;2022-08-21T02:07:42;101371.00;;;16.40
17142;BMP180;32805;53.556;9.944;2022-08-21T02:10:12;101374.00;;;16.50
17142;BMP180;32805;53.556;9.944;2022-08-21T02:12:41;101373.00;;;16.50
17142;BMP180;32805;53.556;9.944;2022-08-21T02:15:10;101358.00;;;16.50
17142;BMP180;32805;53.556;9.944;2022-08-21T02:17:40;101369.00;;;16.50
17142;BMP180;32805;53.556;9.944;2022-08-21T02:20:09;101359.00;;;16.50
17142;BMP180;32805;53.556;9.944;2022-08-21T02:22:37;101359.00;;;16.40
17142;BMP180;32805;53.556;9.944;2022-08-21T02:25:06;101365.00;;;16.50
17142;BMP180;32805;53.556;9.944;2022-08-21T02:27:38;101362.00;;;16.40
17142;BMP180;32805;53.556;9.944;2022-08-21T02:30:10;101364.00;;;16.40
17142;BMP180;32805;53.556;9.944;2022-08-21T02:32:39;101363.00;;;16.40
17142;BMP180;32805;53.556;9.944;2022-08-21T02:35:08;101362.00;;;16.40
17142;BMP180;32805;53.556;9.944;2022-08-21T02:37:43;101360.00;;;16.40
17142;BMP180;32805;53.556;9.944;2022-08-21T02:40:12;101348.00;;;16.40
17142;BMP180;32805;53.556;9.944;2022-08-21T02:42:40;101365.00;;;16.40
17142;BMP180;32805;53.556;9.944;2022-08-21T02:45:13;101362.00;;;16.40
17142;BMP180;32805;53.556;9.944;2022-08-21T02:47:47;101364.00;;;16.40
17142;BMP180;32805;53.556;9.944;2022-08-21T02:50:18;101359.00;;;16.30
17142;BMP180;32805;53.556;9.944;2022-08-21T02:52:47;101358.00;;;16.30
17142;BMP180;32805;53.556;9.944;2022-08-21T02:55:21;101359.00;;;16.10
17142;BMP180;32805;53.556;9.944;2022-08-21T02:57:48;101350.00;;;16.00
17142;BMP180;32805;53.556;9.944;2022-08-21T03:00:19;101343.00;;;16.10
17142;BMP180;32805;53.556;9.944;2022-08-21T03:02:48;101348.00;;;16.10
17142;BMP180;32805;53.556;9.944;2022-08-21T03:05:16;101347.00;;;16.00
17142;BMP180;32805;53.556;9.944;2022-08-21T03:07:45;101357.00;;;16.00
17142;BMP180;32805;53.556;9.944;2022-08-21T03:10:14;101355.00;;;16.00
17142;BMP180;32805;53.556;9.944;2022-08-21T03:12:42;101345.00;;;16.00
17142;BMP180;32805;53.556;9.944;2022-08-21T03:15:12;101344.00;;;15.90
17142;BMP180;32805;53.556;9.944;2022-08-21T03:17:41;101345.00;;;16.00
17142;BMP180;32805;53.556;9.944;2022-08-21T03:20:10;101344.00;;;16.00
17142;BMP180;32805;53.556;9.944;2022-08-21T03:22:38;101340.00;;;16.00
17142;BMP180;32805;53.556;9.944;2022-08-21T03:25:06;101344.00;;;16.00
17142;BMP180;32805;53.556;9.944;2022-08-21T03:27:37;101343.00;;;16.00
17142;BMP180;32805;53.556;9.944;2022-08-21T03:30:09;101342.00;;;16.00
17142;BMP180;32805;53.556;9.944;2022-08-21T03:32:37;101346.00;;;15.90
17142;BMP180;32805;53.556;9.944;2022-08-21T03:35:07;101340.00;;;15.80
17142;BMP180;32805;53.556;9.944;2022-08-21T03:37:35;101343.00;;;15.80
17142;BMP180;32805;53.556;9.944;2022-08-21T03:40:06;101333.00;;;15.80
17142;BMP180;32805;53.556;9.944;2022-08-21T03:42:34;101343.00;;;15.80
17142;BMP180;32805;53.556;9.944;2022-08-21T03:45:02;101336.00;;;15.80
17142;BMP180;32805;53.556;9.944;2022-08-21T03:47:31;101343.00;;;15.70
17142;BMP180;32805;53.556;9.944;2022-08-21T03:49:58;101346.00;;;15.50
17142;BMP180;32805;53.556;9.944;2022-08-21T03:52:28;101342.00;;;15.60
17142;BMP180;32805;53.556;9.944;2022-08-21T03:54:55;101345.00;;;15.60
17142;BMP180;32805;53.556;9.944;2022-08-21T03:57:23;101341.00;;;15.70
17142;BMP180;32805;53.556;9.944;2022-08-21T03:59:51;101346.00;;;15.60
17142;BMP180;32805;53.556;9.944;2022-08-21T04:02:20;101334.00;;;15.70
17142;BMP180;32805;53.556;9.944;2022-08-21T04:04:48;101344.00;;;15.70
17142;BMP180;32805;53.556;9.944;2022-08-21T04:07:16;101351.00;;;15.70
17142;BMP180;32805;53.556;9.944;2022-08-21T04:09:45;101338.00;;;15.70
17142;BMP180;32805;53.556;9.944;2022-08-21T04:12:13;101348.00;;;15.70
17142;BMP180;32805;53.556;9.944;2022-08-21T04:14:40;101341.00;;;15.70
17142;BMP180;32805;53.556;9.944;2022-08-21T04:17:09;101342.00;;;15.80
17142;BMP180;32805;53.556;9.944;2022-08-21T04:19:36;101344.00;;;15.70
17142;BMP180;32805;53.556;9.944;2022-08-21T04:22:04;101340.00;;;15.70
17142;BMP180;32805;53.556;9.944;2022-08-21T04:24:32;101355.00;;;15.70
17142;BMP180;32805;53.556;9.944;2022-08-21T04:27:01;101349.00;;;15.80
17142;BMP180;32805;53.556;9.944;2022-08-21T04:29:29;101339.00;;;15.90
17142;BMP180;32805;53.556;9.944;2022-08-21T04:31:57;101350.00;;;16.00
17142;BMP180;32805;53.556;9.944;2022-08-21T04:34:25;101344.00;;;16.00
17142;BMP180;32805;53.556;9.944;2022-08-21T04:36:52;101350.00;;;16.20
17142;BMP180;32805;53.556;9.944;2022-08-21T04:39:20;101357.00;;;16.20
17142;BMP180;32805;53.556;9.944;2022-08-21T04:41:55;101342.00;;;16.20
17142;BMP180;32805;53.556;9.944;2022-08-21T04:44:24;101350.00;;;16.30
17142;BMP180;32805;53.556;9.944;2022-08-21T04:46:52;101348.00;;;16.30
17142;BMP180;32805;53.556;9.944;2022-08-21T04:49:20;101346.00;;;16.40
17142;BMP180;32805;53.556;9.944;2022-08-21T04:51:47;101355.00;;;16.50
17142;BMP180;32805;53.556;9.944;2022-08-21T04:54:19;101356.00;;;16.60
17142;BMP180;32805;53.556;9.944;2022-08-21T04:56:50;101357.00;;;16.60
17142;BMP180;32805;53.556;9.944;2022-08-21T04:59:25;101361.00;;;16.60
17142;BMP180;32805;53.556;9.944;2022-08-21T05:01:54;101366.00;;;16.60
17142;BMP180;32805;53.556;9.944;2022-08-21T05:04:26;101361.00;;;16.50
17142;BMP180;32805;53.556;9.944;2022-08-21T05:06:58;101364.00;;;16.50
17142;BMP180;32805;53.556;9.944;2022-08-21T05:09:27;101346.00;;;16.50
17142;BMP180;32805;53.556;9.944;2022-08-21T05:11:56;101371.00;;;16.60
17142;BMP180;32805;53.556;9.944;2022-08-21T05:14:26;101366.00;;;16.60
17142;BMP180;32805;53.556;9.944;2022-08-21T05:16:53;101365.00;;;16.60
17142;BMP180;32805;53.556;9.944;2022-08-21T05:19:21;101359.00;;;16.80
17142;BMP180;32805;53.556;9.944;2022-08-21T05:21:50;101371.00;;;16.80
17142;BMP180;32805;53.556;9.944;2022-08-21T05:24:18;101371.00;;;16.90
17142;BMP180;32805;53.556;9.944;2022-08-21T05:26:46;101367.00;;;17.10
17142;BMP180;32805;53.556;9.944;2022-08-21T05:29:15;101366.00;;;17.20
17142;BMP180;32805;53.556;9.944;2022-08-21T05:31:46;101368.00;;;17.30
17142;BMP180;32805;53.556;9.944;2022-08-21T05:34:17;101365.00;;;17.40
17142;BMP180;32805;53.556;9.944;2022-08-21T05:36:45;101365.00;;;17.30
17142;BMP180;32805;53.556;9.944;2022-08-21T05:39:13;101369.00;;;17.30
17142;BMP180;32805;53.556;9.944;2022-08-21T05:41:41;101372.00;;;17.10
17142;BMP180;32805;53.556;9.944;2022-08-21T05:44:09;101367.00;;;17.20
17142;BMP180;32805;53.556;9.944;2022-08-21T05:46:38;101363.00;;;17.30
17142;BMP180;32805;53.556;9.944;2022-08-21T05:49:07;101361.00;;;17.40
17142;BMP180;32805;53.556;9.944;2022-08-21T05:51:35;101362.00;;;17.50
17142;BMP180;32805;53.556;9.944;2022-08-21T05:54:03;101368.00;;;17.60
17142;BMP180;32805;53.556;9.944;2022-08-21T05:56:31;101368.00;;;17.80
17142;BMP180;32805;53.556;9.944;2022-08-21T05:58:59;101369.00;;;17.90
17142;BMP180;32805;53.556;9.944;2022-08-21T06:01:27;101373.00;;;18.00
17142;BMP180;32805;53.556;9.944;2022-08-21T06:03:57;101369.00;;;18.00
17142;BMP180;32805;53.556;9.944;2022-08-21T06:06:28;101370.00;;;18.10
17142;BMP180;32805;53.556;9.944;2022-08-21T06:08:56;101372.00;;;18.20
17142;BMP180;32805;53.556;9.944;2022-08-21T06:11:24;101371.00;;;18.00
17142;BMP180;32805;53.556;9.944;2022-08-21T06:13:54;101374.00;;;18.10
17142;BMP180;32805;53.556;9.944;2022-08-21T06:16:22;101372.00;;;18.10
17142;BMP180;32805;53.556;9.944;2022-08-21T06:18:50;101366.00;;;18.10
17142;BMP180;32805;53.556;9.944;2022-08-21T06:21:18;101369.00;;;18.20
17142;BMP180;32805;53.556;9.944;2022-08-21T06:23:47;101379.00;;;18.00
17142;BMP180;32805;53.556;9.944;2022-08-21T06:26:15;101362.00;;;18.00
17142;BMP180;32805;53.556;9.944;2022-08-21T06:28:43;101364.00;;;17.90
17142;BMP180;32805;53.556;9.944;2022-08-21T06:31:13;101370.00;;;17.80
17142;BMP180;32805;53.556;9.944;2022-08-21T06:33:42;101367.00;;;17.90
17142;BMP180;32805;53.556;9.944;2022-08-21T06:36:09;101360.00;;;17.90
17142;BMP180;32805;53.556;9.944;2022-08-21T06:38:38;101366.00;;;18.00
17142;BMP180;32805;53.556;9.944;2022-08-21T06:41:08;101368.00;;;18.10
17142;BMP180;32805;53.556;9.944;2022-08-21T06:43:36;101363.00;;;18.30
17142;BMP180;32805;53.556;9.944;2022-08-21T06:46:05;101368.00;;;18.50
17142;BMP180;32805;53.556;9.944;2022-08-21T06:48:34;101367.00;;;18.60
17142;BMP180;32805;53.556;9.944;2022-08-21T06:51:02;101361.00;;;18.70
17142;BMP180;32805;53.556;9.944;2022-08-21T06:53:30;101355.00;;;18.80
17142;BMP180;32805;53.556;9.944;2022-08-21T06:55:58;101358.00;;;18.80
17142;BMP180;32805;53.556;9.944;2022-08-21T06:58:27;101352.00;;;18.80
17142;BMP180;32805;53.556;9.944;2022-08-21T07:00:55;101342.00;;;18.80
17142;BMP180;32805;53.556;9.944;2022-08-21T07:03:28;101356.00;;;18.80
17142;BMP180;32805;53.556;9.944;2022-08-21T07:05:56;101343.00;;;18.80
17142;BMP180;32805;53.556;9.944;2022-08-21T07:08:25;101341.00;;;19.00
17142;BMP180;32805;53.556;9.944;2022-08-21T07:10:54;101342.00;;;19.10
17142;BMP180;32805;53.556;9.944;2022-08-21T07:13:22;101326.00;;;19.30
17142;BMP180;32805;53.556;9.944;2022-08-21T07:15:51;101324.00;;;19.30
17142;BMP180;32805;53.556;9.944;2022-08-21T07:18:19;101320.00;;;19.30
17142;BMP180;32805;53.556;9.944;2022-08-21T07:20:47;101327.00;;;19.30
17142;BMP180;32805;53.556;9.944;2022-08-21T07:23:19;101321.00;;;19.30
17142;BMP180;32805;53.556;9.944;2022-08-21T07:25:48;101325.00;;;19.50
17142;BMP180;32805;53.556;9.944;2022-08-21T07:28:16;101331.00;;;19.60
17142;BMP180;32805;53.556;9.944;2022-08-21T07:30:44;101326.00;;;19.50
17142;BMP180;32805;53.556;9.944;2022-08-21T07:33:13;101322.00;;;19.50
17142;BMP180;32805;53.556;9.944;2022-08-21T07:35:40;101327.00;;;19.70
17142;BMP180;32805;53.556;9.944;2022-08-21T07:38:08;101328.00;;;19.80
17142;BMP180;32805;53.556;9.944;2022-08-21T07:40:36;101318.00;;;20.00
17142;BMP180;32805;53.556;9.944;2022-08-21T07:43:05;101319.00;;;19.90
17142;BMP180;32805;53.556;9.944;2022-08-21T07:45:33;101320.00;;;20.00
17142;BMP180;32805;53.556;9.944;2022-08-21T07:48:01;101324.00;;;20.00
17142;BMP180;32805;53.556;9.944;2022-08-21T07:50:31;101318.00;;;20.10
17142;BMP180;32805;53.556;9.944;2022-08-21T07:52:59;101315.00;;;20.20
17142;BMP180;32805;53.556;9.944;2022-08-21T07:55:26;101317.00;;;20.10
17142;BMP180;32805;53.556;9.944;2022-08-21T07:57:54;101318.00;;;20.20
17142;BMP180;32805;53.556;9.944;2022-08-21T08:00:24;101317.00;;;20.00
17142;BMP180;32805;53.556;9.944;2022-08-21T08:02:52;101319.00;;;20.00
17142;BMP180;32805;53.556;9.944;2022-08-21T08:05:23;101310.00;;;20.20
17142;BMP180;32805;53.556;9.944;2022-08-21T08:07:52;101315.00;;;20.20
17142;BMP180;32805;53.556;9.944;2022-08-21T08:10:21;101307.00;;;20.20
17142;BMP180;32805;53.556;9.944;2022-08-21T08:12:50;101310.00;;;20.30
17142;BMP180;32805;53.556;9.944;2022-08-21T08:15:21;101306.00;;;20.40
17142;BMP180;32805;53.556;9.944;2022-08-21T08:17:49;101304.00;;;20.50
17142;BMP180;32805;53.556;9.944;2022-08-21T08:20:18;101301.00;;;20.40
17142;BMP180;32805;53.556;9.944;2022-08-21T08:22:46;101306.00;;;20.40
17142;BMP180;32805;53.556;9.944;2022-08-21T08:25:18;101307.00;;;20.30
17142;BMP180;32805;53.556;9.944;2022-08-21T08:27:46;101312.00;;;20.10
17142;BMP180;32805;53.556;9.944;2022-08-21T08:30:16;101306.00;;;20.30
17142;BMP180;32805;53.556;9.944;2022-08-21T08:32:45;101317.00;;;20.20
17142;BMP180;32805;53.556;9.944;2022-08-21T08:35:14;101311.00;;;20.00
17142;BMP180;32805;53.556;9.944;2022-08-21T08:37:41;101310.00;;;20.10
17142;BMP180;32805;53.556;9.944;2022-08-21T08:40:23;101316.00;;;20.10
17142;BMP180;32805;53.556;9.944;2022-08-21T08:42:52;101307.00;;;20.20
17142;BMP180;32805;53.556;9.944;2022-08-21T08:45:22;101301.00;;;20.30
17142;BMP180;32805;53.556;9.944;2022-08-21T08:47:53;101305.00;;;20.30
17142;BMP180;32805;53.556;9.944;2022-08-21T08:50:27;101310.00;;;20.30
17142;BMP180;32805;53.556;9.944;2022-08-21T08:52:58;101304.00;;;20.50
17142;BMP180;32805;53.556;9.944;2022-08-21T08:55:34;101296.00;;;20.50
17142;BMP180;32805;53.556;9.944;2022-08-21T08:58:03;101297.00;;;20.40
17142;BMP180;32805;53.556;9.944;2022-08-21T09:00:31;101296.00;;;20.40
17142;BMP180;32805;53.556;9.944;2022-08-21T09:03:01;101293.00;;;20.40
17142;BMP180;32805;53.556;9.944;2022-08-21T09:05:36;101299.00;;;20.40
17142;BMP180;32805;53.556;9.944;2022-08-21T09:08:38;101300.00;;;20.40
17142;BMP180;32805;53.556;9.944;2022-08-21T09:11:17;101296.00;;;20.40
17142;BMP180;32805;53.556;9.944;2022-08-21T09:13:53;101289.00;;;20.50
17142;BMP180;32805;53.556;9.944;2022-08-21T09:16:28;101288.00;;;20.60
17142;BMP180;32805;53.556;9.944;2022-08-21T09:19:03;101291.00;;;20.70
17142;BMP180;32805;53.556;9.944;2022-08-21T09:21:38;101289.00;;;20.70
17142;BMP180;32805;53.556;9.944;2022-08-21T09:24:21;101287.00;;;20.90
17142;BMP180;32805;53.556;9.944;2022-08-21T09:27:02;101290.00;;;20.90
17142;BMP180;32805;53.556;9.944;2022-08-21T09:29:35;101290.00;;;21.00
17142;BMP180;32805;53.556;9.944;2022-08-21T09:32:10;101278.00;;;21.40
17142;BMP180;32805;53.556;9.944;2022-08-21T09:34:55;101272.00;;;21.30
17142;BMP180;32805;53.556;9.944;2022-08-21T09:37:24;101278.00;;;21.30
17142;BMP180;32805;53.556;9.944;2022-08-21T09:39:52;101281.00;;;21.20
17142;BMP180;32805;53.556;9.944;2022-08-21T09:42:24;101281.00;;;21.10
17142;BMP180;32805;53.556;9.944;2022-08-21T09:45:09;101273.00;;;21.30
17142;BMP180;32805;53.556;9.944;2022-08-21T09:47:37;101286.00;;;21.20
17142;BMP180;32805;53.556;9.944;2022-08-21T09:50:11;101284.00;;;21.10
17142;BMP180;32805;53.556;9.944;2022-08-21T09:52:45;101286.00;;;21.10
17142;BMP180;32805;53.556;9.944;2022-08-21T09:55:18;101283.00;;;21.00
17142;BMP180;32805;53.556;9.944;2022-08-21T09:58:01;101285.00;;;21.00
17142;BMP180;32805;53.556;9.944;2022-08-21T10:00:32;101267.00;;;20.90
17142;BMP180;32805;53.556;9.944;2022-08-21T10:03:12;101281.00;;;21.00
17142;BMP180;32805;53.556;9.944;2022-08-21T10:05:51;101283.00;;;21.10
17142;BMP180;32805;53.556;9.944;2022-08-21T10:08:21;101287.00;;;21.20
17142;BMP180;32805;53.556;9.944;2022-08-21T10:10:52;101279.00;;;21.30
17142;BMP180;32805;53.556;9.944;2022-08-21T10:13:30;101283.00;;;21.20
17142;BMP180;32805;53.556;9.944;2022-08-21T10:16:14;101275.00;;;21.20
17142;BMP180;32805;53.556;9.944;2022-08-21T10:18:48;101273.00;;;21.30
17142;BMP180;32805;53.556;9.944;2022-08-21T10:21:26;101278.00;;;21.70
17142;BMP180;32805;53.556;9.944;2022-08-21T10:24:03;101281.00;;;21.80
17142;BMP180;32805;53.556;9.944;2022-08-21T10:26:47;101276.00;;;21.90
17142;BMP180;32805;53.556;9.944;2022-08-21T10:29:30;101274.00;;;21.90
17142;BMP180;32805;53.556;9.944;2022-08-21T10:32:03;101269.00;;;21.80
17142;BMP180;32805;53.556;9.944;2022-08-21T10:34:57;101274.00;;;21.90
17142;BMP180;32805;53.556;9.944;2022-08-21T10:37:37;101289.00;;;22.00
17142;BMP180;32805;53.556;9.944;2022-08-21T10:40:13;101276.00;;;22.10
17142;BMP180;32805;53.556;9.944;2022-08-21T10:42:52;101276.00;;;22.20
17142;BMP180;32805;53.556;9.944;2022-08-21T10:45:35;101266.00;;;22.30
17142;BMP180;32805;53.556;9.944;2022-08-21T10:48:05;101267.00;;;22.20
17142;BMP180;32805;53.556;9.944;2022-08-21T10:50:39;101271.00;;;22.30
17142;BMP180;32805;53.556;9.944;2022-08-21T10:53:22;101276.00;;;22.50
17142;BMP180;32805;53.556;9.944;2022-08-21T10:55:56;101270.00;;;22.30
17142;BMP180;32805;53.556;9.944;2022-08-21T10:58:29;101270.00;;;22.20
17142;BMP180;32805;53.556;9.944;2022-08-21T11:01:04;101275.00;;;22.20
17142;BMP180;32805;53.556;9.944;2022-08-21T11:03:41;101280.00;;;22.10
17142;BMP180;32805;53.556;9.944;2022-08-21T11:06:11;101281.00;;;22.10
17142;BMP180;32805;53.556;9.944;2022-08-21T11:08:43;101275.00;;;22.20
17142;BMP180;32805;53.556;9.944;2022-08-21T11:11:15;101280.00;;;22.30
17142;BMP180;32805;53.556;9.944;2022-08-21T11:13:52;101277.00;;;22.40
17142;BMP180;32805;53.556;9.944;2022-08-21T11:16:26;101266.00;;;22.50
17142;BMP180;32805;53.556;9.944;2022-08-21T11:19:00;101277.00;;;22.80
17142;BMP180;32805;53.556;9.944;2022-08-21T11:21:36;101262.00;;;23.00
17142;BMP180;32805;53.556;9.944;2022-08-21T11:24:17;101282.00;;;22.80
17142;BMP180;32805;53.556;9.944;2022-08-21T11:26:51;101285.00;;;22.50
17142;BMP180;32805;53.556;9.944;2022-08-21T11:29:25;101282.00;;;22.60
17142;BMP180;32805;53.556;9.944;2022-08-21T11:32:18;101275.00;;;22.70
17142;BMP180;32805;53.556;9.944;2022-08-21T11:34:54;101273.00;;;22.90
17142;BMP180;32805;53.556;9.944;2022-08-21T11:37:45;101281.00;;;23.00
17142;BMP180;32805;53.556;9.944;2022-08-21T11:40:22;101280.00;;;23.20
17142;BMP180;32805;53.556;9.944;2022-08-21T11:42:58;101276.00;;;23.30
17142;BMP180;32805;53.556;9.944;2022-08-21T11:45:36;101274.00;;;23.30
17142;BMP180;32805;53.556;9.944;2022-08-21T11:48:12;101278.00;;;23.20
17142;BMP180;32805;53.556;9.944;2022-08-21T11:50:43;101273.00;;;23.40
17142;BMP180;32805;53.556;9.944;2022-08-21T11:53:14;101269.00;;;23.50
17142;BMP180;32805;53.556;9.944;2022-08-21T11:55:47;101277.00;;;23.50
17142;BMP180;32805;53.556;9.944;2022-08-21T11:58:20;101279.00;;;23.40
17142;BMP180;32805;53.556;9.944;2022-08-21T12:00:52;101277.00;;;23.60
17142;BMP180;32805;53.556;9.944;2022-08-21T12:03:25;101277.00;;;23.40
17142;BMP180;32805;53.556;9.944;2022-08-21T12:05:57;101279.00;;;23.20
17142;BMP180;32805;53.556;9.944;2022-08-21T12:08:28;101288.00;;;23.10
17142;BMP180;32805;53.556;9.944;2022-08-21T12:11:03;101267.00;;;23.10
17142;BMP180;32805;53.556;9.944;2022-08-21T12:13:35;101269.00;;;23.20
17142;BMP180;32805;53.556;9.944;2022-08-21T12:16:12;101269.00;;;23.30
17142;BMP180;32805;53.556;9.944;2022-08-21T12:18:42;101258.00;;;23.10
17142;BMP180;32805;53.556;9.944;2022-08-21T12:21:20;101273.00;;;23.10
17142;BMP180;32805;53.556;9.944;2022-08-21T12:24:00;101273.00;;;23.10
17142;BMP180;32805;53.556;9.944;2022-08-21T12:26:30;101279.00;;;23.20
17142;BMP180;32805;53.556;9.944;2022-08-21T12:29:15;101282.00;;;23.30
17142;BMP180;32805;53.556;9.944;2022-08-21T12:31:51;101277.00;;;23.20
17142;BMP180;32805;53.556;9.944;2022-08-21T12:34:23;101283.00;;;23.10
17142;BMP180;32805;53.556;9.944;2022-08-21T12:36:56;101270.00;;;22.90
17142;BMP180;32805;53.556;9.944;2022-08-21T12:39:27;101282.00;;;23.10
17142;BMP180;32805;53.556;9.944;2022-08-21T12:42:00;101275.00;;;23.40
17142;BMP180;32805;53.556;9.944;2022-08-21T12:44:35;101266.00;;;23.50
17142;BMP180;32805;53.556;9.944;2022-08-21T12:47:11;101265.00;;;23.40
17142;BMP180;32805;53.556;9.944;2022-08-21T12:49:47;101270.00;;;23.20
17142;BMP180;32805;53.556;9.944;2022-08-21T12:52:21;101273.00;;;23.30
17142;BMP180;32805;53.556;9.944;2022-08-21T12:54:49;101266.00;;;23.20
17142;BMP180;32805;53.556;9.944;2022-08-21T12:57:20;101276.00;;;23.20
17142;BMP180;32805;53.556;9.944;2022-08-21T12:59:53;101258.00;;;23.20
17142;BMP180;32805;53.556;9.944;2022-08-21T13:02:23;101268.00;;;23.30
17142;BMP180;32805;53.556;9.944;2022-08-21T13:04:54;101262.00;;;23.60
17142;BMP180;32805;53.556;9.944;2022-08-21T13:07:27;101254.00;;;23.80
17142;BMP180;32805;53.556;9.944;2022-08-21T13:09:59;101263.00;;;23.90
17142;BMP180;32805;53.556;9.944;2022-08-21T13:12:28;101269.00;;;23.70
17142;BMP180;32805;53.556;9.944;2022-08-21T13:15:00;101274.00;;;23.60
17142;BMP180;32805;53.556;9.944;2022-08-21T13:17:31;101273.00;;;23.60
17142;BMP180;32805;53.556;9.944;2022-08-21T13:20:08;101256.00;;;23.70
17142;BMP180;32805;53.556;9.944;2022-08-21T13:22:41;101261.00;;;23.90
17142;BMP180;32805;53.556;9.944;2022-08-21T13:25:11;101269.00;;;23.90
17142;BMP180;32805;53.556;9.944;2022-08-21T13:27:41;101258.00;;;23.70
17142;BMP180;32805;53.556;9.944;2022-08-21T13:30:12;101255.00;;;23.70
17142;BMP180;32805;53.556;9.944;2022-08-21T13:32:43;101249.00;;;23.60
17142;BMP180;32805;53.556;9.944;2022-08-21T13:35:16;101253.00;;;23.60
17142;BMP180;32805;53.556;9.944;2022-08-21T13:37:46;101251.00;;;23.80
17142;BMP180;32805;53.556;9.944;2022-08-21T13:40:19;101249.00;;;23.70
17142;BMP180;32805;53.556;9.944;2022-08-21T13:42:47;101243.00;;;23.60
17142;BMP180;32805;53.556;9.944;2022-08-21T13:45:22;101249.00;;;23.70
17142;BMP180;32805;53.556;9.944;2022-08-21T13:47:51;101240.00;;;23.90
17142;BMP180;32805;53.556;9.944;2022-08-21T13:50:23;101252.00;;;24.00
17142;BMP180;32805;53.556;9.944;2022-08-21T13:52:59;101248.00;;;24.10
17142;BMP180;32805;53.556;9.944;2022-08-21T13:55:37;101264.00;;;24.10
17142;BMP180;32805;53.556;9.944;2022-08-21T13:58:05;101240.00;;;24.00
17142;BMP180;32805;53.556;9.944;2022-08-21T14:00:35;101252.00;;;24.10
17142;BMP180;32805;53.556;9.944;2022-08-21T14:03:07;101241.00;;;24.10
17142;BMP180;32805;53.556;9.944;2022-08-21T14:05:43;101248.00;;;24.30
17142;BMP180;32805;53.556;9.944;2022-08-21T14:08:14;101257.00;;;24.30
17142;BMP180;32805;53.556;9.944;2022-08-21T14:10:45;101248.00;;;24.20
17142;BMP180;32805;53.556;9.944;2022-08-21T14:13:35;101248.00;;;24.30
17142;BMP180;32805;53.556;9.944;2022-08-21T14:16:13;101243.00;;;24.40
17142;BMP180;32805;53.556;9.944;2022-08-21T14:18:46;101255.00;;;24.50